Flight Track Log - Related Links

Times and Time Zones

All times are in EDT time to prevent confusion due to time zone crossing. See the UCA596 flight status page for this flight to view local times or setup timezone preferences in your user account.

Time Position Orientation Groundspeed Altitude Reporting Facility
EDT Latitude Longitude Course Direction KTS MPH feet Rate Location/Type
Fri 01:10:58 PM 38.9500 -77.5000 322° Northwest 129 148 1,600  Level Potomac TRACON
Fri 01:11:58 PM 38.9833 -77.5333 322° Northwest 166 191 2,700 1,250 Climbing Potomac TRACON
Fri 01:12:58 PM 39.0167 -77.5833 311° West 184 212 4,100 1,333 Climbing Potomac TRACON
Fri 01:14:04 PM 39.0667 -77.6333 322° Northwest 190 219 5,500 1,550 Climbing Potomac TRACON
Fri 01:14:58 PM 39.1000 -77.6500 339° North 208 239 7,200 1,684 Climbing Potomac TRACON
Fri 01:15:58 PM 39.1667 -77.6500 360° North 221 254 8,700 1,500 Climbing Potomac TRACON
Fri 01:16:58 PM 39.2333 -77.6333 11° North 234 269 10,200 1,421 Climbing Potomac TRACON
Fri 01:17:52 PM 39.2833 -77.6333 360° North 251 289 11,400 729 Climbing Potomac TRACON
Fri 01:19:18 PM 39.3842 -77.6161 North 259 298 11,900 204 Climbing Washington Center
Fri 01:20:19 PM 39.4658 -77.5917 13° North 272 313 11,900 492 Level Washington Center
Fri 01:21:20 PM 39.5417 -77.5317 31° Northeast 298 343 12,900 590 Climbing Washington Center
Fri 01:22:21 PM 39.6178 -77.4772 29° Northeast 298 343 13,100 947 Climbing Washington Center
Fri 01:23:33 PM 39.7094 -77.4531 11° North 291 335 15,000 1,364 Climbing New York Center
Fri 01:24:33 PM 39.7867 -77.4522 360° North 263 303 16,100 1,041 Climbing New York Center
Fri 01:25:34 PM 39.8472 -77.4500 North 252 290 17,100 1,250 Climbing New York Center
Fri 01:26:33 PM 39.9244 -77.4492 360° North 252 290 18,600 958 Climbing New York Center
Fri 01:27:33 PM 39.9919 -77.4339 10° North 258 297 19,000 200 Climbing New York Center
Fri 01:28:33 PM 40.0828 -77.3775 25° Northeast 304 350 19,000  Level New York Center
Fri 01:29:33 PM 40.1603 -77.3358 22° Northeast 330 380 19,000  Level New York Center
Fri 01:30:33 PM 40.2572 -77.2797 24° Northeast 335 386 19,000  Level New York Center
Fri 01:31:33 PM 40.3369 -77.2328 24° Northeast 340 391 19,000  Level New York Center
Fri 01:32:33 PM 40.4336 -77.1764 24° Northeast 345 397 19,000  Level New York Center
Fri 01:33:33 PM 40.5200 -77.1244 25° Northeast 345 397 19,000 -100 Level New York Center
Fri 01:34:33 PM 40.6103 -77.0725 24° Northeast 345 397 18,800 -350 Descending New York Center
Fri 01:35:33 PM 40.6919 -77.0253 24° Northeast 345 397 18,300 -800 Descending New York Center
Fri 01:36:33 PM 40.7908 -76.9658 24° Northeast 345 397 17,200 -700 Descending New York Center
Fri 01:37:33 PM 40.8769 -76.9158 24° Northeast 345 397 16,900 -150 Descending New York Center
Fri 01:38:33 PM 40.9500 -76.8703 25° Northeast 333 383 16,900  Level New York Center
Fri 01:39:33 PM 41.0317 -76.8225 24° Northeast 322 371 16,900  Level New York Center
Fri 01:40:34 PM 41.1156 -76.7722 24° Northeast 322 371 16,900  Level New York Center
Fri 01:41:33 PM 41.1992 -76.7244 23° Northeast 327 376 16,900  Level New York Center
Fri 01:42:33 PM 41.2811 -76.6708 26° Northeast 327 376 16,900 -500 Level New York Center
Fri 01:43:33 PM 41.3669 -76.6203 24° Northeast 327 376 15,900 -1,200 Descending New York Center
Fri 01:44:33 PM 41.4636 -76.5625 24° Northeast 333 383 14,500 -1,200 Descending New York Center
Fri 01:45:33 PM 41.5472 -76.5114 25° Northeast 333 383 13,500 -1,000 Descending New York Center
Fri 01:46:33 PM 41.6289 -76.4600 25° Northeast 327 376 12,500 -950 Descending New York Center
Fri 01:47:33 PM 41.7017 -76.4164 24° Northeast 327 376 11,600 -1,050 Descending New York Center
Fri 01:48:33 PM 41.7850 -76.3706 22° Northeast 327 376 10,400 -1,300 Descending New York Center
Fri 01:49:33 PM 41.8594 -76.2933 38° Northeast 314 361 9,000 -1,250 Descending New York Center
Fri 01:50:33 PM 41.9192 -76.2175 43° Northeast 294 338 7,900 -1,150 Descending New York Center
Fri 01:51:33 PM 41.9728 -76.1408 47° Northeast 284 327 6,700 -1,150 Descending New York Center
Fri 01:52:33 PM 42.0211 -76.0806 43° Northeast 279 321 5,600 -1,150 Descending New York Center
Fri 01:53:33 PM 42.0828 -76.0072 41° Northeast 268 308 4,400 -1,050 Descending New York Center
Fri 01:54:33 PM 42.1375 -75.9472 39° Northeast 256 295 3,500 -750 Descending New York Center
Fri 01:55:33 PM 42.1803 -75.9200 25° Northeast 189 217 2,900 -700 Descending New York Center
Fri 01:56:33 PM 42.2064 -75.9389 332° Northwest 135 155 2,100 -400 Descending New York Center
Fri 01:57:33 PM 42.2442 -75.9306 North 135 155 2,100 3,450 Level New York Center
Fri 01:58:33 PM 42.2797 -75.9278 North 135 155 9,000 3,450 Climbing New York Center
Fri 01:59:33 PM 42.3175 -75.9222 North 135 155 9,000  Level New York Center
Fri 02:00:33 PM 42.3531 -75.9194 North 135 155 9,000  Level New York Center
Fri 02:02:00 PM 42.2478 -75.9519 193° South  Level FlightAware Approximate

Login

Don't have an account? Register now (free) for customized features, flight alerts, and more!